createdAt,value
2019-04-01T00:01:24.638Z,1.92
2019-04-01T00:03:53.398Z,1.89
2019-04-01T00:06:22.139Z,1.77
2019-04-01T00:08:50.917Z,1.67
2019-04-01T00:11:19.691Z,1.62
2019-04-01T00:13:48.463Z,1.61
2019-04-01T00:16:17.211Z,1.68
2019-04-01T00:18:45.960Z,1.61
2019-04-01T00:21:14.769Z,1.66
2019-04-01T00:23:43.626Z,1.61
2019-04-01T00:26:12.364Z,1.52
2019-04-01T00:28:41.091Z,1.44
2019-04-01T00:31:09.869Z,1.45
2019-04-01T00:33:38.609Z,1.46
2019-04-01T00:36:07.361Z,1.45
2019-04-01T00:38:36.141Z,1.41
2019-04-01T00:41:05.152Z,1.41
2019-04-01T00:43:41.722Z,1.37
2019-04-01T00:46:11.726Z,1.31
2019-04-01T00:48:40.487Z,1.27
2019-04-01T00:51:09.235Z,1.17
2019-04-01T00:53:38.008Z,1.16
2019-04-01T00:56:06.803Z,1.12
2019-04-01T00:58:35.595Z,1.13
2019-04-01T01:01:06.644Z,1.14
2019-04-01T01:03:35.390Z,0.89
2019-04-01T01:06:05.765Z,1.04
2019-04-01T01:08:34.545Z,0.54
2019-04-01T01:11:03.365Z,0.95
2019-04-01T01:13:32.116Z,0.94
2019-04-01T01:16:00.878Z,0.88
2019-04-01T01:18:29.603Z,0.83
2019-04-01T01:20:58.493Z,0.73
2019-04-01T01:23:27.231Z,0.70
2019-04-01T01:25:55.974Z,0.74
2019-04-01T01:28:24.750Z,0.73
2019-04-01T01:30:53.491Z,0.76
2019-04-01T01:33:22.237Z,0.75
2019-04-01T01:35:50.996Z,0.76
2019-04-01T01:38:19.727Z,0.82
2019-04-01T01:40:48.496Z,0.84
2019-04-01T01:43:17.227Z,0.85
2019-04-01T01:45:46.023Z,0.83
2019-04-01T01:48:14.768Z,0.81
2019-04-01T01:50:43.496Z,0.80
2019-04-01T01:53:12.244Z,0.74
2019-04-01T01:55:42.437Z,0.65
2019-04-01T01:58:11.187Z,0.57
2019-04-01T02:00:41.327Z,0.50
2019-04-01T02:03:10.093Z,0.46
2019-04-01T02:05:38.829Z,0.46
2019-04-01T02:08:07.555Z,0.48
2019-04-01T02:10:36.298Z,0.44
2019-04-01T02:13:05.031Z,0.43
2019-04-01T02:15:33.913Z,0.32
2019-04-01T02:18:02.646Z,0.46
2019-04-01T02:20:31.875Z,0.50
2019-04-01T02:23:00.625Z,0.47
2019-04-01T02:25:29.378Z,0.42
2019-04-01T02:27:58.215Z,0.39
2019-04-01T02:30:26.937Z,0.37
2019-04-01T02:32:55.696Z,0.43
2019-04-01T02:35:24.440Z,0.43
2019-04-01T02:37:53.189Z,0.46
2019-04-01T02:40:22.495Z,0.48
2019-04-01T02:42:51.933Z,0.52
2019-04-01T02:45:20.747Z,0.47
2019-04-01T02:47:49.514Z,0.41
2019-04-01T02:50:18.258Z,0.44
2019-04-01T02:52:47.097Z,0.37
2019-04-01T02:55:15.829Z,0.30
2019-04-01T02:57:44.560Z,0.25
2019-04-01T03:00:13.516Z,0.23
2019-04-01T03:02:42.277Z,0.25
2019-04-01T03:05:11.040Z,0.28
2019-04-01T03:07:39.761Z,0.29
2019-04-01T03:10:08.491Z,0.24
2019-04-01T03:12:37.352Z,0.23
2019-04-01T03:15:07.981Z,0.23
2019-04-01T03:17:36.704Z,0.16
2019-04-01T03:20:07.074Z,0.16
2019-04-01T03:22:35.950Z,-0.01
2019-04-01T03:25:06.978Z,0.17
2019-04-01T03:27:35.819Z,-0.60
2019-04-01T03:30:06.000Z,0.13
2019-04-01T03:32:34.754Z,0.08
2019-04-01T03:35:03.720Z,0.08
2019-04-01T03:37:32.442Z,0.06
2019-04-01T03:40:01.190Z,0.02
2019-04-01T03:42:29.960Z,0.01
2019-04-01T03:44:58.693Z,-0.02
2019-04-01T03:47:27.573Z,0.00
2019-04-01T03:49:56.306Z,0.07
2019-04-01T03:52:25.042Z,0.03
2019-04-01T03:54:53.794Z,0.02
2019-04-01T03:57:22.605Z,-0.08
2019-04-01T03:59:51.347Z,-0.09
2019-04-01T04:02:20.209Z,-0.09
2019-04-01T04:04:49.026Z,-0.08
2019-04-01T04:07:17.773Z,-0.06
2019-04-01T04:09:46.742Z,-0.10
2019-04-01T04:12:15.493Z,-0.05
2019-04-01T04:14:44.230Z,-0.13
2019-04-01T04:17:13.010Z,-0.17
2019-04-01T04:19:42.071Z,-0.22
2019-04-01T04:22:10.951Z,-0.25
2019-04-01T04:24:39.704Z,-0.25
2019-04-01T04:27:11.080Z,-0.28
2019-04-01T04:29:39.058Z,-0.28
2019-04-01T04:32:07.957Z,-0.26
2019-04-01T04:34:36.700Z,-0.21
2019-04-01T04:37:05.436Z,-0.18
2019-04-01T04:39:34.206Z,-0.26
2019-04-01T04:42:02.976Z,-0.31
2019-04-01T04:44:31.711Z,-0.37
2019-04-01T04:47:00.512Z,-0.33
2019-04-01T04:49:29.244Z,-0.27
2019-04-01T04:51:58.001Z,-0.28
2019-04-01T04:54:26.764Z,-0.24
2019-04-01T04:56:55.532Z,-0.25
2019-04-01T04:59:24.292Z,-0.26
2019-04-01T05:01:53.048Z,-0.29
2019-04-01T05:04:21.935Z,-0.26
2019-04-01T05:06:50.801Z,-0.22
2019-04-01T05:09:19.555Z,-0.19
2019-04-01T05:11:48.332Z,-0.17
2019-04-01T05:14:17.063Z,-0.17
2019-04-01T05:16:45.834Z,-0.13
2019-04-01T05:19:14.705Z,-0.01
2019-04-01T05:21:43.609Z,-0.01
2019-04-01T05:24:14.640Z,0.10
2019-04-01T05:26:44.957Z,0.33
2019-04-01T05:29:22.758Z,0.79
2019-04-01T05:31:54.596Z,1.28
2019-04-01T05:34:25.253Z,1.51
2019-04-01T05:36:53.984Z,2.04
2019-04-01T05:39:22.809Z,2.60
2019-04-01T05:41:51.607Z,3.08
2019-04-01T05:44:20.952Z,4.02
2019-04-01T05:46:49.687Z,4.14
2019-04-01T05:49:18.462Z,4.46
2019-04-01T05:51:47.228Z,4.97
2019-04-01T05:54:15.980Z,4.88
2019-04-01T05:56:44.726Z,5.22
2019-04-01T05:59:13.459Z,5.56
2019-04-01T06:01:46.490Z,5.23
2019-04-01T06:04:15.315Z,5.33
2019-04-01T06:06:44.061Z,5.45
2019-04-01T06:09:12.820Z,5.21
2019-04-01T06:11:41.577Z,5.91
2019-04-01T06:14:10.338Z,5.35
2019-04-01T06:16:40.288Z,6.11
2019-04-01T06:19:09.091Z,7.05
2019-04-01T06:21:37.875Z,5.62
2019-04-01T06:24:06.612Z,6.90
2019-04-01T06:26:35.473Z,5.78
2019-04-01T06:29:05.215Z,7.07
2019-04-01T06:31:33.966Z,7.14
2019-04-01T06:34:03.843Z,7.07
2019-04-01T06:36:32.614Z,6.75
2019-04-01T06:39:01.411Z,6.84
2019-04-01T06:41:30.131Z,7.15
2019-04-01T06:43:58.877Z,6.93
2019-04-01T06:46:27.608Z,7.23
2019-04-01T06:48:56.571Z,6.95
2019-04-01T06:51:25.380Z,7.34
2019-04-01T06:53:54.101Z,7.14
2019-04-01T06:56:22.972Z,7.36
2019-04-01T06:58:51.802Z,7.19
2019-04-01T07:01:21.085Z,7.20
2019-04-01T07:03:49.875Z,7.69
2019-04-01T07:06:18.606Z,7.62
2019-04-01T07:08:47.487Z,7.89
2019-04-01T07:11:16.228Z,7.77
2019-04-01T07:13:45.060Z,7.80
2019-04-01T07:16:15.960Z,7.96
2019-04-01T07:18:44.353Z,8.29
2019-04-01T07:21:13.101Z,8.01
2019-04-01T07:23:41.879Z,7.78
2019-04-01T07:26:10.631Z,7.98
2019-04-01T07:28:39.367Z,8.40
2019-04-01T07:31:08.134Z,8.50
2019-04-01T07:33:36.993Z,8.74
2019-04-01T07:36:05.777Z,8.99
2019-04-01T07:38:34.510Z,8.81
2019-04-01T07:41:03.239Z,8.69
2019-04-01T07:43:31.996Z,8.21
2019-04-01T07:46:00.726Z,8.54
2019-04-01T07:48:29.580Z,8.43
2019-04-01T07:50:58.377Z,8.41
2019-04-01T07:53:27.641Z,8.75
2019-04-01T07:55:56.582Z,8.73
2019-04-01T07:58:25.313Z,9.16
2019-04-01T08:00:55.136Z,9.34
2019-04-01T08:03:23.960Z,9.85
2019-04-01T08:05:53.194Z,9.93
2019-04-01T08:08:22.062Z,9.99
2019-04-01T08:10:50.860Z,9.63
2019-04-01T08:13:20.595Z,9.97
2019-04-01T08:15:49.354Z,9.47
2019-04-01T08:18:18.095Z,9.70
2019-04-01T08:20:46.910Z,9.57
2019-04-01T08:23:15.742Z,10.13
2019-04-01T08:25:47.779Z,9.32
2019-04-01T08:28:14.967Z,9.80
2019-04-01T08:30:43.700Z,9.88
2019-04-01T08:33:12.563Z,9.51
2019-04-01T08:35:41.287Z,9.61
2019-04-01T08:38:10.027Z,10.18
2019-04-01T08:40:38.884Z,9.91
2019-04-01T08:43:07.609Z,9.90
2019-04-01T08:45:36.412Z,10.31
2019-04-01T08:48:05.169Z,10.16
2019-04-01T08:50:33.926Z,9.98
2019-04-01T08:53:02.712Z,9.90
2019-04-01T08:55:31.462Z,10.07
2019-04-01T08:58:00.184Z,10.40
2019-04-01T09:00:29.041Z,10.25
2019-04-01T09:02:57.862Z,10.50
2019-04-01T09:05:26.587Z,10.52
2019-04-01T09:07:56.343Z,10.58
2019-04-01T09:10:25.107Z,10.65
2019-04-01T09:12:54.607Z,10.53
2019-04-01T09:15:23.357Z,10.49
2019-04-01T09:17:52.260Z,10.59
2019-04-01T09:20:21.046Z,10.93
2019-04-01T09:22:49.814Z,11.29
2019-04-01T09:25:18.572Z,10.98
2019-04-01T09:27:47.335Z,10.95
2019-04-01T09:30:18.624Z,10.60
2019-04-01T09:32:47.278Z,10.77
2019-04-01T09:35:16.452Z,11.64
2019-04-01T09:37:45.179Z,11.77
2019-04-01T09:40:14.033Z,11.67
2019-04-01T09:42:42.785Z,11.23
2019-04-01T09:45:11.859Z,11.36
2019-04-01T09:47:40.645Z,11.36
2019-04-01T09:50:09.586Z,11.08
2019-04-01T09:52:38.368Z,11.56
2019-04-01T09:55:07.312Z,11.53
2019-04-01T09:57:36.071Z,11.52
2019-04-01T10:00:08.404Z,11.46
2019-04-01T10:02:37.247Z,12.21
2019-04-01T10:05:07.561Z,11.75
2019-04-01T10:07:36.424Z,11.84
2019-04-01T10:10:06.809Z,12.02
2019-04-01T10:12:35.631Z,12.27
2019-04-01T10:15:07.372Z,12.41
2019-04-01T10:17:36.099Z,12.28
2019-04-01T10:20:08.581Z,12.46
2019-04-01T10:22:37.432Z,11.86
2019-04-01T10:25:07.197Z,11.98
2019-04-01T10:27:36.069Z,12.36
2019-04-01T10:30:08.233Z,12.45
2019-04-01T10:32:37.014Z,12.18
2019-04-01T10:35:10.669Z,12.38
2019-04-01T10:37:39.410Z,12.07
2019-04-01T10:40:10.665Z,12.10
2019-04-01T10:42:39.489Z,12.24
2019-04-01T10:45:09.618Z,12.13
2019-04-01T10:47:38.396Z,12.37
2019-04-01T10:50:08.856Z,12.46
2019-04-01T10:52:37.849Z,12.55
2019-04-01T10:55:07.684Z,12.42
2019-04-01T10:57:36.395Z,12.66
2019-04-01T11:00:09.861Z,12.69
2019-04-01T11:02:38.633Z,12.49
2019-04-01T11:05:08.586Z,12.84
2019-04-01T11:07:37.557Z,13.02
2019-04-01T11:10:11.310Z,12.92
2019-04-01T11:12:39.740Z,12.87
2019-04-01T11:15:09.946Z,12.94
2019-04-01T11:17:38.699Z,12.58
2019-04-01T11:20:08.271Z,12.27
2019-04-01T11:22:37.418Z,13.05
2019-04-01T11:25:07.895Z,12.72
2019-04-01T11:27:36.621Z,12.78
2019-04-01T11:30:08.458Z,12.98
2019-04-01T11:32:37.528Z,12.73
2019-04-01T11:35:07.796Z,12.86
2019-04-01T11:37:36.667Z,12.48
2019-04-01T11:40:11.258Z,12.20
2019-04-01T11:42:40.823Z,12.13
2019-04-01T11:45:10.420Z,12.57
2019-04-01T11:47:39.343Z,12.43
2019-04-01T11:50:08.358Z,12.76
2019-04-01T11:52:38.143Z,12.92
2019-04-01T11:55:09.187Z,12.66
2019-04-01T11:57:40.555Z,12.36
2019-04-01T12:00:13.964Z,12.50
2019-04-01T12:02:42.778Z,12.18
2019-04-01T12:05:11.559Z,12.39
2019-04-01T12:07:40.293Z,12.85
2019-04-01T12:10:09.561Z,12.94
2019-04-01T12:12:38.288Z,12.80
2019-04-01T12:15:11.545Z,12.49
2019-04-01T12:17:41.417Z,12.39
2019-04-01T12:20:09.611Z,12.61
2019-04-01T12:22:40.590Z,12.57
2019-04-01T12:25:09.668Z,12.76
2019-04-01T12:27:38.544Z,12.67
2019-04-01T12:30:09.803Z,12.69
2019-04-01T12:32:38.606Z,12.56
2019-04-01T12:35:07.472Z,12.40
2019-04-01T12:37:36.258Z,12.98
2019-04-01T12:40:06.742Z,13.13
2019-04-01T12:42:35.486Z,13.01
2019-04-01T12:45:07.857Z,13.14
2019-04-01T12:47:36.728Z,13.35
2019-04-01T12:50:06.364Z,13.01
2019-04-01T12:52:35.227Z,12.98
2019-04-01T12:55:06.648Z,12.64
2019-04-01T12:57:40.453Z,12.89
2019-04-01T13:00:11.137Z,12.78
2019-04-01T13:02:39.888Z,12.91
2019-04-01T13:05:08.737Z,12.80
2019-04-01T13:07:38.357Z,12.73
2019-04-01T13:10:07.928Z,12.97
2019-04-01T13:12:36.781Z,13.02
2019-04-01T13:15:06.961Z,13.41
2019-04-01T13:17:35.859Z,13.77
2019-04-01T13:20:06.628Z,13.42
2019-04-01T13:22:35.356Z,13.63
2019-04-01T13:25:05.926Z,13.48
2019-04-01T13:27:34.777Z,14.21
2019-04-01T13:30:05.313Z,14.25
2019-04-01T13:32:34.040Z,13.87
2019-04-01T13:35:02.800Z,13.47
2019-04-01T13:37:31.574Z,13.43
2019-04-01T13:40:02.692Z,13.86
2019-04-01T13:42:30.817Z,13.96
2019-04-01T13:45:01.791Z,13.71
2019-04-01T13:47:30.055Z,12.80
2019-04-01T13:50:02.687Z,13.58
2019-04-01T13:52:32.842Z,13.66
2019-04-01T13:55:02.375Z,13.26
2019-04-01T13:57:31.158Z,13.61
2019-04-01T14:00:00.006Z,13.58
2019-04-01T14:02:31.021Z,13.89
2019-04-01T14:04:59.295Z,13.73
2019-04-01T14:07:28.042Z,13.94
2019-04-01T14:09:56.799Z,14.20
2019-04-01T14:12:25.567Z,14.05
2019-04-01T14:14:54.384Z,14.05
2019-04-01T14:17:23.141Z,13.80
2019-04-01T14:19:52.006Z,13.51
2019-04-01T14:22:20.754Z,13.98
2019-04-01T14:24:49.490Z,13.90
2019-04-01T14:27:18.255Z,13.92
2019-04-01T14:29:47.031Z,13.53
2019-04-01T14:32:18.074Z,13.40
2019-04-01T14:34:46.291Z,13.54
2019-04-01T14:37:15.091Z,13.48
2019-04-01T14:39:43.856Z,13.77
2019-04-01T14:42:13.639Z,13.46
2019-04-01T14:44:42.520Z,13.34
2019-04-01T14:47:11.262Z,13.61
2019-04-01T14:49:39.986Z,13.77
2019-04-01T14:52:08.763Z,14.02
2019-04-01T14:54:37.494Z,13.68
2019-04-01T14:57:06.305Z,13.90
2019-04-01T14:59:35.034Z,14.08
2019-04-01T15:02:03.959Z,13.98
2019-04-01T15:04:32.923Z,13.49
2019-04-01T15:07:01.676Z,13.18
2019-04-01T15:09:30.416Z,13.39
2019-04-01T15:11:59.188Z,13.50
2019-04-01T15:14:27.966Z,13.47
2019-04-01T15:16:56.746Z,13.44
2019-04-01T15:19:26.949Z,13.34
2019-04-01T15:21:56.128Z,13.66
2019-04-01T15:24:24.879Z,13.66
2019-04-01T15:26:53.696Z,13.71
2019-04-01T15:29:22.482Z,13.64
2019-04-01T15:31:51.218Z,13.53
2019-04-01T15:34:19.970Z,13.70
2019-04-01T15:36:48.862Z,13.78
2019-04-01T15:39:19.906Z,13.63
2019-04-01T15:41:49.655Z,13.55
2019-04-01T15:44:18.426Z,13.57
2019-04-01T15:46:47.305Z,13.61
2019-04-01T15:49:16.384Z,13.63
2019-04-01T15:51:45.294Z,13.80
2019-04-01T15:54:14.234Z,13.72
2019-04-01T15:56:42.973Z,13.57
2019-04-01T15:59:11.725Z,13.57
2019-04-01T16:01:55.215Z,13.72
2019-04-01T16:04:25.133Z,13.61
2019-04-01T16:06:53.999Z,13.65
2019-04-01T16:09:35.147Z,13.67
2019-04-01T16:12:05.285Z,13.48
2019-04-01T16:14:34.024Z,13.44
2019-04-01T16:17:05.272Z,13.48
2019-04-01T16:19:34.147Z,13.54
2019-04-01T16:22:02.968Z,13.48
2019-04-01T16:24:32.468Z,13.17
2019-04-01T16:27:01.424Z,13.25
2019-04-01T16:29:30.185Z,13.16
2019-04-01T16:31:58.939Z,13.07
2019-04-01T16:34:43.648Z,13.05
2019-04-01T16:37:12.375Z,13.00
2019-04-01T16:39:41.185Z,13.01
2019-04-01T16:42:09.954Z,13.01
2019-04-01T16:44:38.963Z,12.95
2019-04-01T16:47:07.691Z,12.88
2019-04-01T16:49:36.723Z,12.83
2019-04-01T16:52:05.535Z,12.86
2019-04-01T16:54:34.316Z,12.84
2019-04-01T16:57:03.068Z,12.75
2019-04-01T16:59:32.057Z,12.84
2019-04-01T17:02:00.879Z,12.73
2019-04-01T17:04:29.610Z,12.69
2019-04-01T17:06:58.380Z,12.58
2019-04-01T17:09:27.120Z,12.43
2019-04-01T17:11:55.898Z,12.39
2019-04-01T17:14:24.930Z,12.37
2019-04-01T17:16:54.690Z,12.40
2019-04-01T17:19:23.481Z,12.39
2019-04-01T17:21:52.221Z,12.31
2019-04-01T17:24:20.963Z,12.27
2019-04-01T17:26:58.358Z,12.37
2019-04-01T17:29:27.125Z,12.34
2019-04-01T17:31:55.875Z,12.13
2019-04-01T17:34:26.908Z,12.15
2019-04-01T17:36:55.654Z,12.01
2019-04-01T17:39:24.390Z,11.86
2019-04-01T17:41:53.204Z,11.84
2019-04-01T17:44:22.056Z,11.83
2019-04-01T17:46:51.106Z,11.68
2019-04-01T17:49:19.874Z,11.61
2019-04-01T17:51:48.706Z,11.54
2019-04-01T17:54:19.029Z,11.48
2019-04-01T17:56:48.095Z,11.46
2019-04-01T17:59:16.898Z,11.42
2019-04-01T18:01:45.745Z,11.39
2019-04-01T18:04:15.445Z,11.31
2019-04-01T18:06:44.235Z,11.24
2019-04-01T18:09:13.375Z,11.14
2019-04-01T18:11:42.314Z,11.06
2019-04-01T18:14:11.052Z,10.92
2019-04-01T18:16:39.788Z,10.84
2019-04-01T18:19:08.559Z,10.74
2019-04-01T18:21:38.899Z,10.71
2019-04-01T18:24:07.636Z,10.67
2019-04-01T18:26:36.419Z,10.61
2019-04-01T18:29:05.270Z,10.57
2019-04-01T18:31:34.000Z,10.56
2019-04-01T18:34:02.764Z,10.45
2019-04-01T18:36:34.711Z,10.41
2019-04-01T18:39:03.942Z,10.37
2019-04-01T18:41:33.202Z,10.28
2019-04-01T18:44:03.064Z,10.24
2019-04-01T18:46:31.898Z,10.16
2019-04-01T18:49:00.622Z,10.06
2019-04-01T18:51:29.513Z,10.13
2019-04-01T18:53:58.243Z,10.01
2019-04-01T18:56:40.380Z,9.89
2019-04-01T18:59:13.460Z,9.85
2019-04-01T19:01:42.199Z,9.79
2019-04-01T19:04:11.937Z,9.67
2019-04-01T19:06:41.168Z,9.65
2019-04-01T19:09:11.802Z,9.62
2019-04-01T19:11:43.296Z,9.56
2019-04-01T19:14:11.563Z,9.51
2019-04-01T19:16:41.251Z,9.46
2019-04-01T19:19:14.957Z,9.32
2019-04-01T19:21:43.723Z,9.28
2019-04-01T19:24:12.638Z,9.13
2019-04-01T19:26:53.126Z,9.04
2019-04-01T19:29:37.446Z,8.93
2019-04-01T19:32:21.584Z,8.97
2019-04-01T19:34:56.154Z,9.02
2019-04-01T19:37:27.211Z,9.02
2019-04-01T19:39:56.205Z,8.98
2019-04-01T19:42:25.057Z,8.91
2019-04-01T19:44:53.790Z,8.86
2019-04-01T19:47:22.542Z,8.84
2019-04-01T19:49:51.849Z,8.90
2019-04-01T19:52:29.352Z,8.88
2019-04-01T19:54:58.583Z,8.75
2019-04-01T19:57:28.124Z,8.62
2019-04-01T19:59:58.938Z,8.58
2019-04-01T20:02:33.983Z,8.59
2019-04-01T20:05:01.519Z,8.56
2019-04-01T20:07:30.499Z,8.58
2019-04-01T20:09:59.227Z,8.46
2019-04-01T20:12:28.005Z,8.45
2019-04-01T20:14:58.878Z,8.49
2019-04-01T20:17:27.311Z,8.47
2019-04-01T20:19:56.077Z,8.37
2019-04-01T20:22:25.178Z,8.40
2019-04-01T20:24:55.906Z,8.40
2019-04-01T20:27:26.571Z,8.31
2019-04-01T20:29:55.761Z,8.30
2019-04-01T20:32:24.795Z,8.25
2019-04-01T20:34:57.078Z,8.19
2019-04-01T20:37:24.034Z,8.09
2019-04-01T20:39:53.045Z,7.96
2019-04-01T20:42:21.766Z,7.94
2019-04-01T20:44:50.498Z,7.88
2019-04-01T20:47:19.389Z,7.83
2019-04-01T20:49:48.514Z,7.75
2019-04-01T20:52:17.410Z,7.63
2019-04-01T20:54:47.205Z,7.62
2019-04-01T20:57:16.356Z,7.51
2019-04-01T20:59:46.485Z,7.36
2019-04-01T21:02:15.218Z,7.31
2019-04-01T21:04:43.934Z,7.22
2019-04-01T21:07:12.742Z,7.22
2019-04-01T21:09:41.483Z,7.21
2019-04-01T21:12:10.212Z,7.23
2019-04-01T21:14:39.118Z,7.07
2019-04-01T21:17:07.857Z,7.03
2019-04-01T21:19:36.582Z,7.02
2019-04-01T21:22:05.447Z,6.93
2019-04-01T21:24:34.454Z,6.75
2019-04-01T21:27:03.228Z,6.64
2019-04-01T21:29:32.000Z,6.53
2019-04-01T21:32:00.764Z,6.41
2019-04-01T21:34:29.532Z,6.23
2019-04-01T21:36:58.300Z,6.12
2019-04-01T21:39:27.040Z,5.99
2019-04-01T21:41:55.876Z,5.90
2019-04-01T21:44:24.606Z,5.82
2019-04-01T21:46:53.336Z,5.81
2019-04-01T21:49:22.202Z,5.71
2019-04-01T21:51:50.930Z,5.66
2019-04-01T21:54:19.709Z,5.60
2019-04-01T21:56:48.651Z,5.58
2019-04-01T21:59:18.059Z,5.56
2019-04-01T22:01:47.815Z,5.53
2019-04-01T22:04:16.576Z,5.46
2019-04-01T22:06:45.328Z,5.42
2019-04-01T22:09:14.122Z,5.36
2019-04-01T22:11:42.936Z,5.34
2019-04-01T22:14:11.691Z,5.30
2019-04-01T22:16:40.430Z,5.25
2019-04-01T22:19:09.194Z,5.23
2019-04-01T22:21:37.934Z,5.21
2019-04-01T22:24:06.794Z,5.19
2019-04-01T22:26:35.523Z,5.17
2019-04-01T22:29:05.277Z,5.16
2019-04-01T22:31:34.014Z,5.17
2019-04-01T22:34:02.869Z,5.15
2019-04-01T22:36:31.647Z,5.10
2019-04-01T22:39:00.449Z,5.12
2019-04-01T22:41:29.402Z,5.02
2019-04-01T22:43:59.020Z,4.99
2019-04-01T22:46:27.792Z,4.99
2019-04-01T22:48:56.727Z,4.93
2019-04-01T22:51:25.597Z,4.89
2019-04-01T22:53:54.360Z,4.83
2019-04-01T22:56:23.152Z,4.80
2019-04-01T22:58:51.913Z,4.76
2019-04-01T23:01:20.658Z,4.75
2019-04-01T23:03:49.408Z,4.76
2019-04-01T23:06:18.115Z,4.75
2019-04-01T23:08:46.841Z,4.71
2019-04-01T23:11:15.571Z,4.66
2019-04-01T23:13:44.331Z,4.61
2019-04-01T23:16:13.128Z,4.52
2019-04-01T23:18:43.011Z,4.50
2019-04-01T23:21:11.757Z,4.45
2019-04-01T23:23:40.484Z,4.41
2019-04-01T23:26:09.246Z,4.39
2019-04-01T23:28:38.037Z,4.29
2019-04-01T23:31:06.803Z,4.24
2019-04-01T23:33:35.530Z,4.23
2019-04-01T23:36:05.434Z,4.22
2019-04-01T23:38:34.174Z,4.07
2019-04-01T23:41:02.894Z,4.17
2019-04-01T23:43:31.643Z,4.15
2019-04-01T23:46:00.420Z,4.09
2019-04-01T23:48:29.222Z,4.05
2019-04-01T23:50:58.005Z,4.00
2019-04-01T23:53:26.833Z,3.99
2019-04-01T23:55:55.551Z,3.97
2019-04-01T23:58:24.316Z,3.86
